sensor_id;sensor_type;location;lat;lon;timestamp;pressure;altitude;pressure_sealevel;temperature;humidity
66887;BME280;67239;51.680;5.976;2023-06-24T00:01:39;102271.22;;;19.69;71.74
66887;BME280;67239;51.680;5.976;2023-06-24T00:04:06;102274.97;;;19.65;72.01
66887;BME280;67239;51.680;5.976;2023-06-24T00:06:33;102278.75;;;19.61;72.10
66887;BME280;67239;51.680;5.976;2023-06-24T00:09:01;102267.38;;;19.56;72.51
66887;BME280;67239;51.680;5.976;2023-06-24T00:11:46;102281.75;;;19.53;72.53
66887;BME280;67239;51.680;5.976;2023-06-24T00:14:30;102270.25;;;19.51;73.23
66887;BME280;67239;51.680;5.976;2023-06-24T00:16:58;102272.06;;;19.51;73.41
66887;BME280;67239;51.680;5.976;2023-06-24T00:19:26;102273.94;;;19.49;73.41
66887;BME280;67239;51.680;5.976;2023-06-24T00:21:54;102266.94;;;19.46;73.59
66887;BME280;67239;51.680;5.976;2023-06-24T00:24:22;102272.28;;;19.46;73.56
66887;BME280;67239;51.680;5.976;2023-06-24T00:26:53;102263.47;;;19.44;73.97
66887;BME280;67239;51.680;5.976;2023-06-24T00:29:20;102267.88;;;19.45;73.69
66887;BME280;67239;51.680;5.976;2023-06-24T00:31:48;102266.13;;;19.44;73.72
66887;BME280;67239;51.680;5.976;2023-06-24T00:34:15;102266.25;;;19.41;73.49
66887;BME280;67239;51.680;5.976;2023-06-24T00:36:43;102276.31;;;19.36;73.86
66887;BME280;67239;51.680;5.976;2023-06-24T00:39:13;102268.50;;;19.31;73.89
66887;BME280;67239;51.680;5.976;2023-06-24T00:41:40;102271.22;;;19.30;74.16
66887;BME280;67239;51.680;5.976;2023-06-24T00:44:07;102278.38;;;19.29;74.38
66887;BME280;67239;51.680;5.976;2023-06-24T00:46:35;102283.81;;;19.28;74.45
66887;BME280;67239;51.680;5.976;2023-06-24T00:49:03;102282.13;;;19.25;74.64
66887;BME280;67239;51.680;5.976;2023-06-24T00:51:30;102288.47;;;19.22;74.67
66887;BME280;67239;51.680;5.976;2023-06-24T00:53:58;102281.50;;;19.18;74.77
66887;BME280;67239;51.680;5.976;2023-06-24T00:56:35;102285.16;;;19.17;75.29
66887;BME280;67239;51.680;5.976;2023-06-24T00:59:13;102279.03;;;19.14;75.49
66887;BME280;67239;51.680;5.976;2023-06-24T01:01:42;102283.53;;;19.13;75.41
66887;BME280;67239;51.680;5.976;2023-06-24T01:04:11;102283.66;;;19.10;75.46
66887;BME280;67239;51.680;5.976;2023-06-24T01:06:38;102276.66;;;19.07;75.81
66887;BME280;67239;51.680;5.976;2023-06-24T01:09:12;102279.53;;;19.03;75.85
66887;BME280;67239;51.680;5.976;2023-06-24T01:11:39;102284.03;;;19.02;75.95
66887;BME280;67239;51.680;5.976;2023-06-24T01:14:06;102275.19;;;19.00;76.27
66887;BME280;67239;51.680;5.976;2023-06-24T01:19:49;102267.47;;;18.92;76.70
66887;BME280;67239;51.680;5.976;2023-06-24T01:36:57;102256.19;;;18.43;77.22
66887;BME280;67239;51.680;5.976;2023-06-24T01:39:35;102252.81;;;18.38;77.18
66887;BME280;67239;51.680;5.976;2023-06-24T01:42:10;102246.75;;;18.34;77.27
66887;BME280;67239;51.680;5.976;2023-06-24T01:44:43;102248.59;;;18.32;77.20
66887;BME280;67239;51.680;5.976;2023-06-24T01:47:17;102246.06;;;18.29;77.30
66887;BME280;67239;51.680;5.976;2023-06-24T01:49:47;102255.19;;;18.23;77.45
66887;BME280;67239;51.680;5.976;2023-06-24T01:52:18;102261.56;;;18.19;77.61
66887;BME280;67239;51.680;5.976;2023-06-24T01:54:49;102257.41;;;18.12;77.70
66887;BME280;67239;51.680;5.976;2023-06-24T01:57:20;102267.28;;;18.10;78.27
66887;BME280;67239;51.680;5.976;2023-06-24T01:59:52;102273.63;;;18.07;79.08
66887;BME280;67239;51.680;5.976;2023-06-24T02:02:21;102277.09;;;18.09;80.57
66887;BME280;67239;51.680;5.976;2023-06-24T02:04:53;102267.28;;;18.10;80.53
66887;BME280;67239;51.680;5.976;2023-06-24T02:07:23;102269.84;;;18.13;80.69
66887;BME280;67239;51.680;5.976;2023-06-24T02:09:52;102268.84;;;18.15;81.67
66887;BME280;67239;51.680;5.976;2023-06-24T02:12:21;102269.84;;;18.13;81.61
66887;BME280;67239;51.680;5.976;2023-06-24T02:14:52;102279.59;;;18.14;81.85
66887;BME280;67239;51.680;5.976;2023-06-24T02:17:24;102276.00;;;18.15;81.98
66887;BME280;67239;51.680;5.976;2023-06-24T02:19:53;102269.84;;;18.13;81.94
66887;BME280;67239;51.680;5.976;2023-06-24T02:22:22;102277.72;;;18.16;81.83
66887;BME280;67239;51.680;5.976;2023-06-24T02:24:52;102277.66;;;18.18;82.03
66887;BME280;67239;51.680;5.976;2023-06-24T02:27:21;102271.44;;;18.17;81.95
66887;BME280;67239;51.680;5.976;2023-06-24T02:29:49;102268.75;;;18.17;81.79
66887;BME280;67239;51.680;5.976;2023-06-24T02:32:18;102263.50;;;18.15;81.86
66887;BME280;67239;51.680;5.976;2023-06-24T02:34:45;102266.28;;;18.12;81.94
66887;BME280;67239;51.680;5.976;2023-06-24T02:37:13;102264.63;;;18.10;82.00
66887;BME280;67239;51.680;5.976;2023-06-24T02:39:40;102263.94;;;18.05;81.99
66887;BME280;67239;51.680;5.976;2023-06-24T02:42:11;102258.81;;;17.98;82.07
66887;BME280;67239;51.680;5.976;2023-06-24T02:44:39;102257.13;;;17.96;82.73
66887;BME280;67239;51.680;5.976;2023-06-24T02:47:09;102265.22;;;17.93;82.79
66887;BME280;67239;51.680;5.976;2023-06-24T02:49:39;102255.75;;;17.85;82.94
66887;BME280;67239;51.680;5.976;2023-06-24T02:52:09;102258.59;;;17.81;83.48
66887;BME280;67239;51.680;5.976;2023-06-24T02:54:36;102260.44;;;17.79;84.11
66887;BME280;67239;51.680;5.976;2023-06-24T02:57:29;102256.19;;;17.73;84.35
66887;BME280;67239;51.680;5.976;2023-06-24T03:00:16;102263.63;;;17.65;84.42
66887;BME280;67239;51.680;5.976;2023-06-24T03:03:05;102262.16;;;17.56;84.96
66887;BME280;67239;51.680;5.976;2023-06-24T03:05:36;102264.16;;;17.51;85.70
66887;BME280;67239;51.680;5.976;2023-06-24T03:08:05;102256.31;;;17.46;86.02
66887;BME280;67239;51.680;5.976;2023-06-24T03:10:36;102251.34;;;17.37;85.88
66887;BME280;67239;51.680;5.976;2023-06-24T03:13:08;102259.69;;;17.26;85.26
66887;BME280;67239;51.680;5.976;2023-06-24T03:15:42;102256.50;;;17.16;86.07
66887;BME280;67239;51.680;5.976;2023-06-24T03:18:09;102257.59;;;17.11;86.45
66887;BME280;67239;51.680;5.976;2023-06-24T03:20:37;102252.44;;;17.06;86.31
66887;BME280;67239;51.680;5.976;2023-06-24T03:23:10;102259.66;;;17.02;86.76
66887;BME280;67239;51.680;5.976;2023-06-24T03:25:38;102252.69;;;16.98;87.18
66887;BME280;67239;51.680;5.976;2023-06-24T03:28:06;102252.78;;;16.95;87.62
66887;BME280;67239;51.680;5.976;2023-06-24T03:30:39;102254.66;;;16.91;87.00
66887;BME280;67239;51.680;5.976;2023-06-24T03:33:06;102260.97;;;16.89;86.87
66887;BME280;67239;51.680;5.976;2023-06-24T03:35:34;102257.50;;;16.87;87.14
66887;BME280;67239;51.680;5.976;2023-06-24T03:38:05;102253.97;;;16.86;87.83
66887;BME280;67239;51.680;5.976;2023-06-24T03:40:33;102255.81;;;16.84;87.25
66887;BME280;67239;51.680;5.976;2023-06-24T03:43:01;102252.28;;;16.84;87.58
66887;BME280;67239;51.680;5.976;2023-06-24T03:45:28;102253.25;;;16.81;87.41
66887;BME280;67239;51.680;5.976;2023-06-24T03:47:55;102256.78;;;16.82;87.47
66887;BME280;67239;51.680;5.976;2023-06-24T03:50:23;102271.84;;;16.83;87.61
66887;BME280;67239;51.680;5.976;2023-06-24T03:52:50;102273.59;;;16.84;87.01
66887;BME280;67239;51.680;5.976;2023-06-24T03:55:17;102271.63;;;16.89;87.33
66887;BME280;67239;51.680;5.976;2023-06-24T03:57:44;102271.44;;;16.95;86.75
66887;BME280;67239;51.680;5.976;2023-06-24T04:00:12;102279.28;;;17.00;87.15
66887;BME280;67239;51.680;5.976;2023-06-24T04:02:44;102276.56;;;17.01;86.92
66887;BME280;67239;51.680;5.976;2023-06-24T04:05:12;102270.25;;;17.04;87.10
66887;BME280;67239;51.680;5.976;2023-06-24T04:07:41;102271.13;;;17.04;87.13
66887;BME280;67239;51.680;5.976;2023-06-24T04:10:17;102272.59;;;17.13;87.07
66887;BME280;67239;51.680;5.976;2023-06-24T04:12:45;102285.59;;;17.22;87.10
66887;BME280;67239;51.680;5.976;2023-06-24T04:15:13;102288.91;;;17.29;87.80
66887;BME280;67239;51.680;5.976;2023-06-24T04:17:40;102284.06;;;17.41;88.39
66887;BME280;67239;51.680;5.976;2023-06-24T04:20:08;102281.00;;;17.51;88.56
66887;BME280;67239;51.680;5.976;2023-06-24T04:22:37;102277.06;;;17.62;88.50
66887;BME280;67239;51.680;5.976;2023-06-24T04:25:05;102283.88;;;17.70;88.57
66887;BME280;67239;51.680;5.976;2023-06-24T04:27:34;102283.63;;;17.77;88.38
66887;BME280;67239;51.680;5.976;2023-06-24T04:30:06;102285.94;;;17.86;87.96
66887;BME280;67239;51.680;5.976;2023-06-24T04:32:33;102283.06;;;17.92;87.51
66887;BME280;67239;51.680;5.976;2023-06-24T04:35:00;102288.13;;;18.00;87.82
66887;BME280;67239;51.680;5.976;2023-06-24T04:37:28;102284.91;;;18.14;87.41
66887;BME280;67239;51.680;5.976;2023-06-24T04:39:57;102289.63;;;18.29;86.95
66887;BME280;67239;51.680;5.976;2023-06-24T04:42:24;102290.25;;;18.36;86.79
66887;BME280;67239;51.680;5.976;2023-06-24T04:44:51;102293.47;;;18.44;86.55
66887;BME280;67239;51.680;5.976;2023-06-24T04:47:18;102287.72;;;18.55;85.89
66887;BME280;67239;51.680;5.976;2023-06-24T04:49:45;102283.84;;;18.62;85.32
66887;BME280;67239;51.680;5.976;2023-06-24T04:52:13;102276.38;;;18.71;85.23
66887;BME280;67239;51.680;5.976;2023-06-24T04:54:40;102268.06;;;18.78;85.08
66887;BME280;67239;51.680;5.976;2023-06-24T04:57:09;102271.25;;;18.87;84.27
66887;BME280;67239;51.680;5.976;2023-06-24T04:59:49;102279.97;;;18.92;84.08
66887;BME280;67239;51.680;5.976;2023-06-24T05:02:16;102282.31;;;19.00;83.70
66887;BME280;67239;51.680;5.976;2023-06-24T05:04:43;102282.84;;;19.08;82.85
66887;BME280;67239;51.680;5.976;2023-06-24T05:07:10;102281.88;;;19.11;82.58
66887;BME280;67239;51.680;5.976;2023-06-24T05:09:38;102281.59;;;19.17;82.25
66887;BME280;67239;51.680;5.976;2023-06-24T05:12:06;102276.03;;;19.21;82.21
66887;BME280;67239;51.680;5.976;2023-06-24T05:14:35;102284.38;;;19.34;82.26
66887;BME280;67239;51.680;5.976;2023-06-24T05:17:03;102283.44;;;19.75;81.98
66887;BME280;67239;51.680;5.976;2023-06-24T05:19:31;102286.81;;;19.99;81.30
66887;BME280;67239;51.680;5.976;2023-06-24T05:21:59;102285.78;;;20.94;79.30
66887;BME280;67239;51.680;5.976;2023-06-24T05:24:26;102280.00;;;23.55;69.92
66887;BME280;67239;51.680;5.976;2023-06-24T05:26:53;102273.56;;;24.84;63.76
66887;BME280;67239;51.680;5.976;2023-06-24T05:29:20;102274.63;;;25.71;61.45
66887;BME280;67239;51.680;5.976;2023-06-24T05:31:47;102278.69;;;27.68;56.31
66887;BME280;67239;51.680;5.976;2023-06-24T05:34:14;102283.38;;;29.29;51.21
66887;BME280;67239;51.680;5.976;2023-06-24T05:36:41;102280.84;;;30.58;46.89
66887;BME280;67239;51.680;5.976;2023-06-24T05:39:09;102282.34;;;31.57;42.00
66887;BME280;67239;51.680;5.976;2023-06-24T05:41:38;102282.84;;;32.45;39.30
66887;BME280;67239;51.680;5.976;2023-06-24T05:44:07;102283.34;;;33.11;36.76
66887;BME280;67239;51.680;5.976;2023-06-24T05:46:36;102292.88;;;33.68;34.89
66887;BME280;67239;51.680;5.976;2023-06-24T05:49:04;102285.47;;;34.11;32.72
66887;BME280;67239;51.680;5.976;2023-06-24T05:51:31;102283.47;;;34.38;31.05
66887;BME280;67239;51.680;5.976;2023-06-24T05:53:58;102285.38;;;34.71;30.07
66887;BME280;67239;51.680;5.976;2023-06-24T05:56:25;102286.91;;;34.90;29.59
66887;BME280;67239;51.680;5.976;2023-06-24T05:58:53;102293.19;;;35.07;28.75
66887;BME280;67239;51.680;5.976;2023-06-24T06:01:20;102296.09;;;35.13;28.67
66887;BME280;67239;51.680;5.976;2023-06-24T06:03:47;102294.22;;;35.14;27.99
66887;BME280;67239;51.680;5.976;2023-06-24T06:06:15;102288.09;;;35.04;28.10
66887;BME280;67239;51.680;5.976;2023-06-24T06:08:42;102291.34;;;35.07;28.63
66887;BME280;67239;51.680;5.976;2023-06-24T06:11:09;102298.13;;;35.28;28.63
66887;BME280;67239;51.680;5.976;2023-06-24T06:13:36;102298.78;;;35.47;28.04
66887;BME280;67239;51.680;5.976;2023-06-24T06:16:03;102302.69;;;35.52;27.58
66887;BME280;67239;51.680;5.976;2023-06-24T06:18:32;102300.31;;;35.41;27.25
66887;BME280;67239;51.680;5.976;2023-06-24T06:20:59;102297.50;;;34.84;27.52
66887;BME280;67239;51.680;5.976;2023-06-24T06:23:26;102299.72;;;33.37;29.36
66887;BME280;67239;51.680;5.976;2023-06-24T06:25:54;102302.47;;;30.79;32.78
66887;BME280;67239;51.680;5.976;2023-06-24T06:28:22;102303.53;;;28.51;36.76
66887;BME280;67239;51.680;5.976;2023-06-24T06:30:49;102308.09;;;26.80;40.24
66887;BME280;67239;51.680;5.976;2023-06-24T06:33:16;102314.94;;;25.62;43.43
66887;BME280;67239;51.680;5.976;2023-06-24T06:35:43;102316.03;;;24.80;46.18
66887;BME280;67239;51.680;5.976;2023-06-24T06:38:10;102318.91;;;24.22;47.45
66887;BME280;67239;51.680;5.976;2023-06-24T06:40:37;102312.03;;;23.75;49.02
66887;BME280;67239;51.680;5.976;2023-06-24T06:43:04;102311.25;;;23.44;50.35
66887;BME280;67239;51.680;5.976;2023-06-24T06:45:31;102323.16;;;23.25;51.30
66887;BME280;67239;51.680;5.976;2023-06-24T06:47:59;102310.13;;;23.03;51.10
66887;BME280;67239;51.680;5.976;2023-06-24T06:50:26;102323.78;;;22.84;52.46
66887;BME280;67239;51.680;5.976;2023-06-24T06:52:53;102319.06;;;22.73;53.03
66887;BME280;67239;51.680;5.976;2023-06-24T06:55:21;102329.56;;;22.61;53.07
66887;BME280;67239;51.680;5.976;2023-06-24T06:57:48;102323.06;;;22.49;53.63
66887;BME280;67239;51.680;5.976;2023-06-24T07:00:16;102320.91;;;22.40;54.12
66887;BME280;67239;51.680;5.976;2023-06-24T07:02:43;102327.41;;;22.36;54.39
66887;BME280;67239;51.680;5.976;2023-06-24T07:05:10;102325.50;;;22.38;54.49
66887;BME280;67239;51.680;5.976;2023-06-24T07:07:38;102323.16;;;22.48;55.26
66887;BME280;67239;51.680;5.976;2023-06-24T07:10:05;102335.09;;;22.58;54.46
66887;BME280;67239;51.680;5.976;2023-06-24T07:12:33;102339.25;;;22.64;53.58
66887;BME280;67239;51.680;5.976;2023-06-24T07:15:00;102338.31;;;22.65;53.52
66887;BME280;67239;51.680;5.976;2023-06-24T07:17:27;102336.31;;;22.69;53.25
66887;BME280;67239;51.680;5.976;2023-06-24T07:19:54;102332.56;;;22.71;53.79
66887;BME280;67239;51.680;5.976;2023-06-24T07:22:22;102328.59;;;22.78;53.06
66887;BME280;67239;51.680;5.976;2023-06-24T07:24:49;102331.84;;;22.84;53.03
66887;BME280;67239;51.680;5.976;2023-06-24T07:27:16;102337.91;;;22.87;52.76
66887;BME280;67239;51.680;5.976;2023-06-24T07:29:43;102331.59;;;22.88;52.45
66887;BME280;67239;51.680;5.976;2023-06-24T07:32:10;102335.91;;;22.91;52.49
66887;BME280;67239;51.680;5.976;2023-06-24T07:34:37;102328.50;;;22.94;51.22
66887;BME280;67239;51.680;5.976;2023-06-24T07:37:04;102339.03;;;22.99;51.92
66887;BME280;67239;51.680;5.976;2023-06-24T07:39:45;102332.22;;;23.08;52.27
66887;BME280;67239;51.680;5.976;2023-06-24T07:42:17;102339.47;;;23.22;50.95
66887;BME280;67239;51.680;5.976;2023-06-24T07:44:46;102340.66;;;23.32;50.91
66887;BME280;67239;51.680;5.976;2023-06-24T07:47:19;102335.88;;;23.37;51.65
66887;BME280;67239;51.680;5.976;2023-06-24T07:49:49;102332.91;;;23.42;51.87
66887;BME280;67239;51.680;5.976;2023-06-24T07:52:16;102334.34;;;23.48;51.46
66887;BME280;67239;51.680;5.976;2023-06-24T07:54:43;102335.78;;;23.53;52.10
66887;BME280;67239;51.680;5.976;2023-06-24T07:57:10;102336.34;;;23.58;52.38
66887;BME280;67239;51.680;5.976;2023-06-24T07:59:38;102341.16;;;23.68;52.02
66887;BME280;67239;51.680;5.976;2023-06-24T08:02:05;102343.50;;;23.74;51.77
66887;BME280;67239;51.680;5.976;2023-06-24T08:04:32;102346.38;;;23.85;50.84
66887;BME280;67239;51.680;5.976;2023-06-24T08:06:59;102344.06;;;23.94;48.73
66887;BME280;67239;51.680;5.976;2023-06-24T08:09:26;102340.03;;;24.01;47.89
66887;BME280;67239;51.680;5.976;2023-06-24T08:11:53;102335.78;;;24.11;48.09
66887;BME280;67239;51.680;5.976;2023-06-24T08:14:21;102340.25;;;24.25;48.17
66887;BME280;67239;51.680;5.976;2023-06-24T08:16:48;102334.50;;;24.31;47.09
66887;BME280;67239;51.680;5.976;2023-06-24T08:19:15;102326.19;;;24.34;46.36
66887;BME280;67239;51.680;5.976;2023-06-24T08:21:44;102323.13;;;24.41;45.25
66887;BME280;67239;51.680;5.976;2023-06-24T08:24:14;102331.63;;;24.47;45.88
66887;BME280;67239;51.680;5.976;2023-06-24T08:26:41;102330.06;;;24.58;45.25
66887;BME280;67239;51.680;5.976;2023-06-24T08:29:08;102328.69;;;24.65;43.81
66887;BME280;67239;51.680;5.976;2023-06-24T08:31:35;102327.63;;;24.68;44.14
66887;BME280;67239;51.680;5.976;2023-06-24T08:34:02;102323.69;;;24.73;43.44
66887;BME280;67239;51.680;5.976;2023-06-24T08:36:29;102320.78;;;24.76;42.54
66887;BME280;67239;51.680;5.976;2023-06-24T08:38:56;102312.25;;;24.83;42.51
66887;BME280;67239;51.680;5.976;2023-06-24T08:41:26;102306.56;;;24.87;42.82
66887;BME280;67239;51.680;5.976;2023-06-24T08:43:53;102312.19;;;24.97;43.87
66887;BME280;67239;51.680;5.976;2023-06-24T08:46:24;102303.47;;;25.06;43.42
66887;BME280;67239;51.680;5.976;2023-06-24T08:49:06;102303.91;;;25.13;43.68
66887;BME280;67239;51.680;5.976;2023-06-24T08:52:00;102304.13;;;25.23;43.11
66887;BME280;67239;51.680;5.976;2023-06-24T08:54:34;102310.59;;;25.33;42.52
66887;BME280;67239;51.680;5.976;2023-06-24T08:57:03;102308.47;;;25.38;42.51
66887;BME280;67239;51.680;5.976;2023-06-24T08:59:36;102301.88;;;25.42;41.33
66887;BME280;67239;51.680;5.976;2023-06-24T09:02:05;102307.91;;;25.46;41.80
66887;BME280;67239;51.680;5.976;2023-06-24T09:04:34;102309.88;;;25.57;41.42
66887;BME280;67239;51.680;5.976;2023-06-24T09:07:01;102307.47;;;25.65;41.34
66887;BME280;67239;51.680;5.976;2023-06-24T09:09:42;102306.81;;;25.74;41.15
66887;BME280;67239;51.680;5.976;2023-06-24T09:12:14;102293.09;;;25.78;40.16
66887;BME280;67239;51.680;5.976;2023-06-24T09:14:48;102295.22;;;25.85;39.20
66887;BME280;67239;51.680;5.976;2023-06-24T09:17:16;102295.97;;;25.87;39.46
66887;BME280;67239;51.680;5.976;2023-06-24T09:19:44;102295.22;;;25.98;39.55
66887;BME280;67239;51.680;5.976;2023-06-24T09:22:11;102300.16;;;26.04;39.40
66887;BME280;67239;51.680;5.976;2023-06-24T09:24:45;102300.25;;;26.16;38.67
66887;BME280;67239;51.680;5.976;2023-06-24T09:27:14;102300.31;;;26.27;38.73
66887;BME280;67239;51.680;5.976;2023-06-24T09:29:43;102289.16;;;26.32;39.65
66887;BME280;67239;51.680;5.976;2023-06-24T09:32:10;102286.63;;;26.42;39.52
66887;BME280;67239;51.680;5.976;2023-06-24T09:34:38;102284.09;;;26.51;39.23
66887;BME280;67239;51.680;5.976;2023-06-24T09:37:05;102280.50;;;26.51;39.21
66887;BME280;67239;51.680;5.976;2023-06-24T09:39:38;102272.94;;;26.56;38.87
66887;BME280;67239;51.680;5.976;2023-06-24T09:42:06;102276.78;;;26.65;39.04
66887;BME280;67239;51.680;5.976;2023-06-24T09:44:34;102271.63;;;26.73;37.47
66887;BME280;67239;51.680;5.976;2023-06-24T09:47:02;102273.19;;;26.89;38.08
66887;BME280;67239;51.680;5.976;2023-06-24T09:49:29;102270.63;;;26.99;37.68
66887;BME280;67239;51.680;5.976;2023-06-24T09:51:58;102275.78;;;27.02;36.38
66887;BME280;67239;51.680;5.976;2023-06-24T09:54:28;102273.22;;;27.00;36.92
66887;BME280;67239;51.680;5.976;2023-06-24T09:57:01;102276.53;;;27.04;37.05
66887;BME280;67239;51.680;5.976;2023-06-24T09:59:31;102271.63;;;27.09;37.11
66887;BME280;67239;51.680;5.976;2023-06-24T10:02:03;102271.00;;;27.17;37.52
66887;BME280;67239;51.680;5.976;2023-06-24T10:04:32;102259.47;;;27.26;36.89
66887;BME280;67239;51.680;5.976;2023-06-24T10:06:59;102265.13;;;27.34;37.56
66887;BME280;67239;51.680;5.976;2023-06-24T10:09:29;102264.28;;;27.45;36.86
66887;BME280;67239;51.680;5.976;2023-06-24T10:11:56;102266.41;;;27.53;36.31
66887;BME280;67239;51.680;5.976;2023-06-24T10:14:24;102264.81;;;27.62;36.22
66887;BME280;67239;51.680;5.976;2023-06-24T10:17:00;102266.00;;;27.69;35.18
66887;BME280;67239;51.680;5.976;2023-06-24T10:19:38;102261.81;;;27.76;35.43
66887;BME280;67239;51.680;5.976;2023-06-24T10:22:09;102262.06;;;27.73;34.88
66887;BME280;67239;51.680;5.976;2023-06-24T10:24:39;102263.16;;;27.70;34.81
66887;BME280;67239;51.680;5.976;2023-06-24T10:27:17;102259.34;;;27.73;35.14
66887;BME280;67239;51.680;5.976;2023-06-24T10:29:52;102255.78;;;27.84;35.06
66887;BME280;67239;51.680;5.976;2023-06-24T10:32:23;102251.91;;;27.98;35.62
66887;BME280;67239;51.680;5.976;2023-06-24T10:34:57;102252.28;;;28.16;34.16
66887;BME280;67239;51.680;5.976;2023-06-24T10:37:26;102244.00;;;28.17;34.28
66887;BME280;67239;51.680;5.976;2023-06-24T10:40:02;102253.47;;;28.23;34.84
66887;BME280;67239;51.680;5.976;2023-06-24T10:42:39;102249.38;;;28.29;34.16
66887;BME280;67239;51.680;5.976;2023-06-24T10:47:37;102253.63;;;28.22;33.66
66887;BME280;67239;51.680;5.976;2023-06-24T10:50:11;102244.50;;;28.23;34.45
66887;BME280;67239;51.680;5.976;2023-06-24T10:52:42;102243.13;;;28.28;33.33
66887;BME280;67239;51.680;5.976;2023-06-24T10:55:13;102242.00;;;28.31;33.90
66887;BME280;67239;51.680;5.976;2023-06-24T10:57:43;102239.63;;;28.38;34.54
66887;BME280;67239;51.680;5.976;2023-06-24T11:00:12;102241.16;;;28.51;33.57
66887;BME280;67239;51.680;5.976;2023-06-24T11:02:40;102229.50;;;28.61;33.33
66887;BME280;67239;51.680;5.976;2023-06-24T11:05:11;102232.94;;;28.74;33.01
66887;BME280;67239;51.680;5.976;2023-06-24T11:07:40;102233.13;;;28.82;32.15
66887;BME280;67239;51.680;5.976;2023-06-24T11:10:10;102236.69;;;28.83;31.56
66887;BME280;67239;51.680;5.976;2023-06-24T11:12:42;102228.09;;;28.78;31.65
66887;BME280;67239;51.680;5.976;2023-06-24T11:15:12;102224.78;;;28.74;32.02
66887;BME280;67239;51.680;5.976;2023-06-24T11:17:41;102222.94;;;28.75;32.62
66887;BME280;67239;51.680;5.976;2023-06-24T11:20:13;102219.75;;;28.91;32.03
66887;BME280;67239;51.680;5.976;2023-06-24T11:22:42;102216.47;;;28.97;32.13
66887;BME280;67239;51.680;5.976;2023-06-24T11:25:18;102219.00;;;29.10;31.98
66887;BME280;67239;51.680;5.976;2023-06-24T11:27:50;102219.69;;;29.12;32.33
66887;BME280;67239;51.680;5.976;2023-06-24T11:30:20;102218.59;;;29.24;32.29
66887;BME280;67239;51.680;5.976;2023-06-24T11:32:47;102214.25;;;29.33;31.21
66887;BME280;67239;51.680;5.976;2023-06-24T11:35:16;102214.25;;;29.33;30.61
66887;BME280;67239;51.680;5.976;2023-06-24T11:37:46;102211.78;;;29.30;31.65
66887;BME280;67239;51.680;5.976;2023-06-24T11:40:18;102206.94;;;29.34;30.82
66887;BME280;67239;51.680;5.976;2023-06-24T11:42:48;102207.34;;;29.29;31.45
66887;BME280;67239;51.680;5.976;2023-06-24T11:45:20;102205.97;;;29.35;31.25
66887;BME280;67239;51.680;5.976;2023-06-24T11:47:51;102199.69;;;29.34;30.66
66887;BME280;67239;51.680;5.976;2023-06-24T11:50:25;102197.19;;;29.31;30.98
66887;BME280;67239;51.680;5.976;2023-06-24T11:52:56;102199.13;;;29.40;31.17
66887;BME280;67239;51.680;5.976;2023-06-24T11:55:25;102199.16;;;29.50;31.13
66887;BME280;67239;51.680;5.976;2023-06-24T11:57:59;102199.59;;;29.55;30.60
66887;BME280;67239;51.680;5.976;2023-06-24T12:00:35;102201.03;;;29.59;30.84
66887;BME280;67239;51.680;5.976;2023-06-24T12:03:06;102201.47;;;29.65;31.07
66887;BME280;67239;51.680;5.976;2023-06-24T12:05:38;102193.47;;;29.73;31.04
66887;BME280;67239;51.680;5.976;2023-06-24T12:08:13;102193.22;;;29.86;30.35
66887;BME280;67239;51.680;5.976;2023-06-24T12:10:43;102185.97;;;29.96;30.35
66887;BME280;67239;51.680;5.976;2023-06-24T12:13:13;102187.09;;;29.94;30.01
66887;BME280;67239;51.680;5.976;2023-06-24T12:15:44;102185.25;;;29.94;31.51
66887;BME280;67239;51.680;5.976;2023-06-24T12:18:12;102185.38;;;30.12;30.58
66887;BME280;67239;51.680;5.976;2023-06-24T12:20:42;102185.53;;;30.20;31.26
66887;BME280;67239;51.680;5.976;2023-06-24T12:23:16;102178.34;;;30.29;30.55
66887;BME280;67239;51.680;5.976;2023-06-24T12:25:43;102177.50;;;30.29;30.31
66887;BME280;67239;51.680;5.976;2023-06-24T12:28:10;102173.78;;;30.30;31.00
66887;BME280;67239;51.680;5.976;2023-06-24T12:30:37;102167.63;;;30.28;30.24
66887;BME280;67239;51.680;5.976;2023-06-24T12:33:04;102170.94;;;30.21;30.88
66887;BME280;67239;51.680;5.976;2023-06-24T12:35:38;102165.91;;;30.27;31.35
66887;BME280;67239;51.680;5.976;2023-06-24T12:38:05;102164.03;;;30.37;30.50
66887;BME280;67239;51.680;5.976;2023-06-24T12:40:32;102160.16;;;30.40;30.37
66887;BME280;67239;51.680;5.976;2023-06-24T12:43:04;102162.03;;;30.39;30.76
66887;BME280;67239;51.680;5.976;2023-06-24T12:45:31;102161.31;;;30.47;30.16
66887;BME280;67239;51.680;5.976;2023-06-24T12:47:58;102154.16;;;30.46;30.34
66887;BME280;67239;51.680;5.976;2023-06-24T12:50:27;102165.44;;;30.51;30.27
66887;BME280;67239;51.680;5.976;2023-06-24T12:52:55;102159.47;;;30.57;30.99
66887;BME280;67239;51.680;5.976;2023-06-24T12:55:22;102156.84;;;30.65;29.48
66887;BME280;67239;51.680;5.976;2023-06-24T12:57:49;102151.41;;;30.65;30.32
66887;BME280;67239;51.680;5.976;2023-06-24T13:00:19;102153.69;;;30.70;29.34
66887;BME280;67239;51.680;5.976;2023-06-24T13:02:48;102152.97;;;30.68;30.19
66887;BME280;67239;51.680;5.976;2023-06-24T13:05:17;102149.09;;;30.71;29.50
66887;BME280;67239;51.680;5.976;2023-06-24T13:07:45;102151.41;;;30.65;30.33
66887;BME280;67239;51.680;5.976;2023-06-24T13:10:13;102153.13;;;30.66;30.48
66887;BME280;67239;51.680;5.976;2023-06-24T13:12:40;102151.91;;;30.79;29.85
66887;BME280;67239;51.680;5.976;2023-06-24T13:15:07;102153.50;;;30.81;30.10
66887;BME280;67239;51.680;5.976;2023-06-24T13:17:36;102151.28;;;30.95;30.75
66887;BME280;67239;51.680;5.976;2023-06-24T13:20:03;102143.22;;;31.13;29.78
66887;BME280;67239;51.680;5.976;2023-06-24T13:22:31;102140.59;;;31.21;29.99